Time;durP1;ratioP1;P1;durP2;ratioP2;P2;SDS_P1;SDS_P2;PMS_P1;PMS_P2;Temp;Humidity;BMP_temperature;BMP_pressure;BME280_temperature;BME280_humidity;BME280_pressure;Samples;Min_cycle;Max_cycle;Signal;HPM_P1;HPM_P2
2021/04/14 00:00:39;;;;;;;;;41.33;34.67;;;;;;;;5023824;28;8854;-81
2021/04/14 00:03:10;;;;;;;;;34.67;33.33;;;;;;;;5022375;28;8884;-80
2021/04/14 00:05:38;;;;;;;;;37.33;33.33;;;;;;;;5023286;28;8892;-79
2021/04/14 00:08:05;;;;;;;;;32.33;29.33;;;;;;;;5029484;28;8890;-79
2021/04/14 00:10:34;;;;;;;;;33.67;33.67;;;;;;;;5021969;28;8905;-80
2021/04/14 00:13:03;;;;;;;;;33.00;25.00;;;;;;;;5021974;28;9659;-80
2021/04/14 00:15:34;;;;;;;;;35.33;32.67;;;;;;;;5019907;28;8945;-80
2021/04/14 00:18:01;;;;;;;;;29.33;29.33;;;;;;;;5021551;28;8941;-80
2021/04/14 00:20:28;;;;;;;;;34.67;28.00;;;;;;;;5020916;28;8872;-80
2021/04/14 00:22:55;;;;;;;;;10.67;10.67;;;;;;;;5021367;28;8914;-81
2021/04/14 00:25:25;;;;;;;;;27.33;25.00;;;;;;;;5022451;28;8883;-81
2021/04/14 00:27:53;;;;;;;;;22.33;17.67;;;;;;;;5020381;28;8895;-81
2021/04/14 00:30:21;;;;;;;;;29.67;29.67;;;;;;;;5021370;28;8978;-81
2021/04/14 00:32:50;;;;;;;;;32.33;32.33;;;;;;;;5021860;28;8914;-80
2021/04/14 00:35:18;;;;;;;;;22.67;22.67;;;;;;;;5033082;28;8865;-81
2021/04/14 00:37:45;;;;;;;;;31.67;28.67;;;;;;;;5022979;28;8986;-81
2021/04/14 00:40:15;;;;;;;;;36.33;31.33;;;;;;;;5020041;28;8913;-80
2021/04/14 00:42:42;;;;;;;;;29.00;27.00;;;;;;;;5021266;28;9713;-81
2021/04/14 00:45:10;;;;;;;;;33.67;30.33;;;;;;;;5020202;28;8860;-81
2021/04/14 00:47:37;;;;;;;;;30.67;28.00;;;;;;;;5020541;28;8908;-80
2021/04/14 00:50:07;;;;;;;;;31.33;28.67;;;;;;;;5022212;28;8941;-81
2021/04/14 00:52:34;;;;;;;;;30.67;25.33;;;;;;;;5020979;28;9026;-81
2021/04/14 00:55:01;;;;;;;;;31.00;28.67;;;;;;;;5018557;28;8914;-81
2021/04/14 00:57:28;;;;;;;;;35.33;30.33;;;;;;;;5021119;28;8888;-80
2021/04/14 00:59:55;;;;;;;;;23.33;23.33;;;;;;;;5017597;28;8880;-79
2021/04/14 01:02:22;;;;;;;;;34.67;33.33;;;;;;;;5025564;28;8829;-80
2021/04/14 01:04:49;;;;;;;;;28.67;27.00;;;;;;;;5019264;28;8900;-79
2021/04/14 01:07:17;;;;;;;;;30.00;30.00;;;;;;;;5020429;28;8860;-79
2021/04/14 01:09:44;;;;;;;;;24.33;24.33;;;;;;;;5021324;28;8910;-80
2021/04/14 01:12:12;;;;;;;;;33.33;32.00;;;;;;;;5019289;28;8996;-80
2021/04/14 01:14:39;;;;;;;;;26.33;26.33;;;;;;;;5021934;28;8871;-80
2021/04/14 01:17:06;;;;;;;;;24.33;24.33;;;;;;;;5018850;28;8898;-81
2021/04/14 01:19:33;;;;;;;;;33.67;29.67;;;;;;;;5020221;28;8918;-79
2021/04/14 01:22:01;;;;;;;;;28.33;28.33;;;;;;;;5019039;28;8868;-81
2021/04/14 01:24:27;;;;;;;;;30.33;30.33;;;;;;;;5021750;28;9003;-80
2021/04/14 01:26:54;;;;;;;;;25.00;23.33;;;;;;;;5020518;28;9613;-81
2021/04/14 01:29:22;;;;;;;;;18.00;18.00;;;;;;;;5025851;28;8896;-81
2021/04/14 01:31:48;;;;;;;;;35.33;34.33;;;;;;;;5020659;28;8902;-80
2021/04/14 01:34:17;;;;;;;;;30.00;30.00;;;;;;;;5020622;28;8880;-80
2021/04/14 01:36:45;;;;;;;;;30.67;30.67;;;;;;;;5020897;28;8875;-78
2021/04/14 01:39:14;;;;;;;;;34.33;34.33;;;;;;;;5019396;28;8892;-79
2021/04/14 01:41:43;;;;;;;;;33.00;33.00;;;;;;;;5021738;28;8891;-79
2021/04/14 01:44:11;;;;;;;;;30.33;29.67;;;;;;;;5020691;28;8975;-79
2021/04/14 01:46:39;;;;;;;;;30.00;30.00;;;;;;;;5020440;28;8958;-81
2021/04/14 01:49:06;;;;;;;;;35.33;35.33;;;;;;;;5023941;28;8871;-81
2021/04/14 01:51:33;;;;;;;;;28.00;27.67;;;;;;;;5020486;28;8954;-81
2021/04/14 01:54:01;;;;;;;;;35.00;31.00;;;;;;;;5022047;28;8998;-81
2021/04/14 01:56:29;;;;;;;;;32.00;31.67;;;;;;;;5017712;28;8956;-79
2021/04/14 01:58:56;;;;;;;;;51.67;46.67;;;;;;;;5020715;28;8914;-81
2021/04/14 02:01:23;;;;;;;;;37.00;35.33;;;;;;;;5019977;28;9606;-78
2021/04/14 02:03:50;;;;;;;;;31.67;30.67;;;;;;;;5021409;28;8868;-78
2021/04/14 02:06:18;;;;;;;;;28.00;28.00;;;;;;;;5025279;28;8897;-77
2021/04/14 02:08:46;;;;;;;;;30.00;30.00;;;;;;;;5020144;28;8975;-77
2021/04/14 02:11:15;;;;;;;;;27.67;27.00;;;;;;;;5020452;28;8891;-77
2021/04/14 02:13:44;;;;;;;;;30.33;30.33;;;;;;;;5023010;28;8896;-77
2021/04/14 02:16:13;;;;;;;;;41.33;39.67;;;;;;;;5028299;28;8884;-77
2021/04/14 02:18:40;;;;;;;;;34.67;34.67;;;;;;;;5022785;28;8998;-77
2021/04/14 02:21:07;;;;;;;;;33.67;33.67;;;;;;;;5028331;28;9680;-79
2021/04/14 02:23:36;;;;;;;;;37.67;37.67;;;;;;;;5028330;28;8882;-79
2021/04/14 02:26:05;;;;;;;;;34.67;31.67;;;;;;;;5027422;28;9651;-79
2021/04/14 02:28:32;;;;;;;;;34.67;34.67;;;;;;;;5024669;28;8882;-79
2021/04/14 02:31:01;;;;;;;;;38.00;38.00;;;;;;;;5022975;28;8934;-79
2021/04/14 02:33:29;;;;;;;;;35.00;33.33;;;;;;;;5025562;28;9002;-79
2021/04/14 02:35:56;;;;;;;;;30.67;30.67;;;;;;;;5020374;28;8872;-79
2021/04/14 02:38:24;;;;;;;;;33.67;33.67;;;;;;;;5024657;28;8859;-79
2021/04/14 02:40:52;;;;;;;;;29.33;29.33;;;;;;;;5023613;28;8888;-81
2021/04/14 02:43:19;;;;;;;;;25.67;25.67;;;;;;;;5023819;28;8864;-81
2021/04/14 02:45:46;;;;;;;;;30.67;29.33;;;;;;;;5022235;28;8880;-80
2021/04/14 02:48:14;;;;;;;;;39.67;36.67;;;;;;;;5023566;28;10204;-81
2021/04/14 02:50:41;;;;;;;;;28.00;28.00;;;;;;;;5025878;28;8881;-80
2021/04/14 02:53:09;;;;;;;;;32.67;32.67;;;;;;;;5020471;28;8886;-81
2021/04/14 02:55:37;;;;;;;;;33.00;33.00;;;;;;;;5022903;28;8875;-80
2021/04/14 02:58:04;;;;;;;;;35.33;35.33;;;;;;;;5022294;28;8884;-79
2021/04/14 03:00:32;;;;;;;;;23.33;23.33;;;;;;;;5022979;28;8913;-78
2021/04/14 03:02:59;;;;;;;;;34.67;34.67;;;;;;;;5025733;28;8982;-81
2021/04/14 03:05:31;;;;;;;;;43.67;41.33;;;;;;;;5021316;28;9046;-81
2021/04/14 03:07:58;;;;;;;;;45.33;42.33;;;;;;;;5031352;28;8891;-79
2021/04/14 03:10:26;;;;;;;;;41.33;39.00;;;;;;;;5022373;28;8876;-79
2021/04/14 03:12:53;;;;;;;;;42.33;42.33;;;;;;;;5024017;28;9092;-79
2021/04/14 03:15:25;;;;;;;;;28.00;28.00;;;;;;;;5020689;28;8987;-79
2021/04/14 03:17:52;;;;;;;;;38.00;38.00;;;;;;;;5023749;28;8919;-79
2021/04/14 03:20:20;;;;;;;;;42.33;39.67;;;;;;;;5022942;28;8889;-79
2021/04/14 03:22:50;;;;;;;;;39.67;37.33;;;;;;;;5020379;28;8883;-80
2021/04/14 03:25:18;;;;;;;;;53.33;45.67;;;;;;;;5022299;28;8868;-79
2021/04/14 03:27:45;;;;;;;;;40.00;40.00;;;;;;;;5022617;28;8872;-79
2021/04/14 03:30:13;;;;;;;;;51.00;48.00;;;;;;;;5022457;28;8871;-79
2021/04/14 03:32:40;;;;;;;;;44.33;44.33;;;;;;;;5021760;28;8900;-79
2021/04/14 03:35:09;;;;;;;;;53.75;48.25;;;;;;;;5028323;28;9023;-79
2021/04/14 03:37:36;;;;;;;;;45.25;39.75;;;;;;;;5030438;28;8855;-79
2021/04/14 03:40:05;;;;;;;;;45.00;44.50;;;;;;;;5023751;28;8871;-79
2021/04/14 03:42:32;;;;;;;;;35.25;35.25;;;;;;;;5030125;28;8867;-79
2021/04/14 03:45:01;;;;;;;;;43.50;42.25;;;;;;;;5016236;28;9700;-81
2021/04/14 03:47:28;;;;;;;;;43.75;41.25;;;;;;;;5027891;28;8863;-80
2021/04/14 03:49:55;;;;;;;;;39.00;38.00;;;;;;;;5026035;28;8884;-80
2021/04/14 03:52:22;;;;;;;;;34.00;34.00;;;;;;;;5024089;28;8883;-80
2021/04/14 03:54:49;;;;;;;;;39.25;37.50;;;;;;;;5022848;28;8890;-81
2021/04/14 03:57:18;;;;;;;;;36.67;36.67;;;;;;;;5022043;28;8893;-81
2021/04/14 03:59:44;;;;;;;;;40.25;38.50;;;;;;;;5027731;28;8849;-81
2021/04/14 04:02:11;;;;;;;;;52.00;48.00;;;;;;;;5024747;28;9029;-80
2021/04/14 04:04:38;;;;;;;;;55.50;49.50;;;;;;;;5023207;28;8864;-79
2021/04/14 04:07:05;;;;;;;;;28.50;28.50;;;;;;;;5020478;28;8990;-81
2021/04/14 04:09:32;;;;;;;;;34.67;34.67;;;;;;;;5024480;28;8894;-79
2021/04/14 04:12:01;;;;;;;;;44.25;42.00;;;;;;;;5018348;28;9006;-79
2021/04/14 04:14:32;;;;;;;;;37.25;37.25;;;;;;;;5028620;28;8891;-81
2021/04/14 04:17:00;;;;;;;;;49.25;47.25;;;;;;;;5025088;28;8879;-79
2021/04/14 04:19:27;;;;;;;;;34.50;34.50;;;;;;;;5020579;28;8871;-79
2021/04/14 04:21:54;;;;;;;;;43.00;43.00;;;;;;;;5022202;28;8840;-78
2021/04/14 04:24:21;;;;;;;;;39.50;36.00;;;;;;;;5020132;28;8997;-78
2021/04/14 04:26:48;;;;;;;;;37.50;36.75;;;;;;;;5022950;28;8860;-80
2021/04/14 04:29:15;;;;;;;;;40.50;38.50;;;;;;;;5019879;28;9650;-80
2021/04/14 04:31:43;;;;;;;;;41.25;41.25;;;;;;;;5019866;28;9586;-78
2021/04/14 04:34:12;;;;;;;;;35.75;35.75;;;;;;;;5024964;28;9035;-79
2021/04/14 04:36:39;;;;;;;;;28.75;28.75;;;;;;;;5021896;28;8871;-80
2021/04/14 04:39:06;;;;;;;;;34.00;34.00;;;;;;;;5009256;28;9494;-80
2021/04/14 04:41:32;;;;;;;;;53.00;47.00;;;;;;;;5021816;28;10103;-79
2021/04/14 04:43:59;;;;;;;;;31.75;31.75;;;;;;;;5022260;28;8868;-80
2021/04/14 04:46:28;;;;;;;;;40.75;40.75;;;;;;;;5018635;28;8871;-81
2021/04/14 04:48:57;;;;;;;;;41.00;39.75;;;;;;;;5023757;28;8917;-81
2021/04/14 04:51:24;;;;;;;;;47.25;45.00;;;;;;;;5021288;28;8883;-82
2021/04/14 04:53:51;;;;;;;;;33.50;33.50;;;;;;;;5005276;28;8912;-81
2021/04/14 04:56:18;;;;;;;;;43.50;43.50;;;;;;;;5023825;28;8892;-82
2021/04/14 04:58:46;;;;;;;;;46.25;40.25;;;;;;;;5022041;28;8946;-82
2021/04/14 05:01:13;;;;;;;;;33.75;33.75;;;;;;;;5020752;28;8792;-81
2021/04/14 05:03:40;;;;;;;;;40.00;36.75;;;;;;;;5020666;28;8977;-82
2021/04/14 05:06:08;;;;;;;;;30.00;30.00;;;;;;;;5023029;28;8883;-82
2021/04/14 05:08:35;;;;;;;;;36.25;34.50;;;;;;;;5020847;28;8884;-81
2021/04/14 05:11:03;;;;;;;;;45.25;40.50;;;;;;;;5004886;28;8868;-79
2021/04/14 05:13:30;;;;;;;;;28.25;26.00;;;;;;;;5020740;28;8925;-79
2021/04/14 05:15:56;;;;;;;;;33.25;32.75;;;;;;;;5022085;28;8885;-83
2021/04/14 05:18:23;;;;;;;;;32.00;31.25;;;;;;;;5023352;28;9072;-85
2021/04/14 05:20:50;;;;;;;;;30.00;29.25;;;;;;;;5022456;28;9108;-83
2021/04/14 05:23:19;;;;;;;;;32.33;30.33;;;;;;;;5023368;28;8964;-83
2021/04/14 05:25:46;;;;;;;;;37.25;37.25;;;;;;;;5016961;28;8880;-84
2021/04/14 05:28:15;;;;;;;;;34.75;34.75;;;;;;;;5025215;28;8915;-84
2021/04/14 05:30:42;;;;;;;;;43.50;43.00;;;;;;;;5018035;28;8812;-83
2021/04/14 05:33:12;;;;;;;;;34.00;33.00;;;;;;;;5022542;28;8906;-85
2021/04/14 05:35:39;;;;;;;;;40.75;38.25;;;;;;;;5021574;28;8867;-82
2021/04/14 05:38:07;;;;;;;;;36.50;32.50;;;;;;;;5021312;28;8887;-87
2021/04/14 05:40:35;;;;;;;;;36.50;36.50;;;;;;;;5021479;28;8876;-83
2021/04/14 05:43:12;;;;;;;;;36.75;36.75;;;;;;;;5020907;28;8994;-84
2021/04/14 05:45:42;;;;;;;;;30.50;30.50;;;;;;;;5014361;28;8890;-83
2021/04/14 05:48:09;;;;;;;;;42.00;41.00;;;;;;;;5025395;28;9023;-83
2021/04/14 05:50:36;;;;;;;;;31.75;31.75;;;;;;;;5026725;28;8960;-84
2021/04/14 05:53:03;;;;;;;;;45.50;45.00;;;;;;;;5024546;28;8902;-83
2021/04/14 05:55:30;;;;;;;;;36.25;36.25;;;;;;;;5025425;28;8892;-81
2021/04/14 05:57:58;;;;;;;;;38.67;37.33;;;;;;;;5026215;28;8893;-83
2021/04/14 06:00:25;;;;;;;;;34.67;34.67;;;;;;;;5023002;28;8822;-82
2021/04/14 06:02:54;;;;;;;;;38.33;36.00;;;;;;;;5025811;28;8899;-83
2021/04/14 06:05:23;;;;;;;;;40.33;40.33;;;;;;;;5006961;28;8906;-86
2021/04/14 06:07:50;;;;;;;;;38.33;37.00;;;;;;;;5026548;28;8917;-83
2021/04/14 06:10:20;;;;;;;;;42.33;42.33;;;;;;;;5024610;28;8872;-85
2021/04/14 06:12:47;;;;;;;;;39.67;38.33;;;;;;;;5021704;28;8872;-84
2021/04/14 06:15:19;;;;;;;;;38.33;38.33;;;;;;;;5025552;28;8874;-85
2021/04/14 06:17:45;;;;;;;;;42.00;40.00;;;;;;;;5025214;28;8879;-85
2021/04/14 06:20:15;;;;;;;;;48.67;45.00;;;;;;;;5025394;28;8901;-85
2021/04/14 06:22:42;;;;;;;;;43.67;43.67;;;;;;;;5025495;28;8910;-86
2021/04/14 06:25:13;;;;;;;;;37.67;37.67;;;;;;;;5026888;28;8899;-85
2021/04/14 06:27:46;;;;;;;;;46.00;43.67;;;;;;;;5026382;28;8860;-85
2021/04/14 06:30:16;;;;;;;;;51.33;48.33;;;;;;;;5024619;28;8879;-86
2021/04/14 06:32:43;;;;;;;;;61.75;51.75;;;;;;;;5026098;28;8870;-86
2021/04/14 06:35:11;;;;;;;;;58.67;51.67;;;;;;;;5024957;28;9417;-86
2021/04/14 06:37:38;;;;;;;;;54.67;48.67;;;;;;;;5009400;28;8910;-87
2021/04/14 06:43:10;;;;;;;;;61.00;50.33;;;;;;;;5026436;28;8977;-84
2021/04/14 06:45:41;;;;;;;;;59.00;52.00;;;;;;;;5021096;28;8984;-84
2021/04/14 06:48:18;;;;;;;;;58.00;45.00;;;;;;;;5024058;28;8867;-80
2021/04/14 06:50:49;;;;;;;;;57.33;48.00;;;;;;;;5023879;28;8898;-74
2021/04/14 06:53:24;;;;;;;;;48.00;45.00;;;;;;;;5015109;28;9003;-75
2021/04/14 06:55:57;;;;;;;;;53.00;45.00;;;;;;;;5021078;28;8915;-74
2021/04/14 06:58:34;;;;;;;;;63.00;49.00;;;;;;;;5021488;28;8866;-75
2021/04/14 07:01:05;;;;;;;;;55.67;46.67;;;;;;;;5021821;28;9007;-73
2021/04/14 07:03:40;;;;;;;;;34.00;34.00;;;;;;;;5022762;28;9018;-74
2021/04/14 07:06:08;;;;;;;;;52.67;44.00;;;;;;;;5016735;28;8895;-74
2021/04/14 07:08:39;;;;;;;;;55.33;46.67;;;;;;;;5020889;28;8963;-75
2021/04/14 07:11:07;;;;;;;;;42.33;41.33;;;;;;;;5021497;28;8832;-71
2021/04/14 07:13:37;;;;;;;;;55.00;47.67;;;;;;;;5020319;28;8887;-73
2021/04/14 07:16:20;;;;;;;;;51.00;43.67;;;;;;;;5021307;28;8882;-71
2021/04/14 07:18:56;;;;;;;;;49.00;44.00;;;;;;;;5021339;28;8867;-70
2021/04/14 07:21:27;;;;;;;;;50.67;47.00;;;;;;;;5025048;28;8926;-73
2021/04/14 07:23:57;;;;;;;;;45.00;39.33;;;;;;;;5020084;28;8872;-74
2021/04/14 07:26:28;;;;;;;;;54.33;47.33;;;;;;;;5020140;28;8860;-73
2021/04/14 07:29:10;;;;;;;;;46.00;40.67;;;;;;;;5021808;28;8868;-73
2021/04/14 07:31:41;;;;;;;;;56.67;45.33;;;;;;;;5017566;28;11591;-70
2021/04/14 07:34:18;;;;;;;;;50.67;43.67;;;;;;;;5022283;28;8862;-71
2021/04/14 07:36:53;;;;;;;;;50.00;43.33;;;;;;;;5018943;28;11673;-71
2021/04/14 07:39:25;;;;;;;;;30.67;30.67;;;;;;;;5021933;28;11633;-75
2021/04/14 07:42:19;;;;;;;;;43.75;41.25;;;;;;;;5020954;28;11591;-74
2021/04/14 07:44:59;;;;;;;;;43.50;41.00;;;;;;;;5019486;28;11642;-75
2021/04/14 07:47:27;;;;;;;;;45.50;40.25;;;;;;;;5021389;28;12321;-75
2021/04/14 07:49:54;;;;;;;;;50.00;45.50;;;;;;;;5020014;28;11729;-75
2021/04/14 07:52:24;;;;;;;;;42.50;40.50;;;;;;;;5020739;28;12401;-75
2021/04/14 07:54:52;;;;;;;;;53.75;43.75;;;;;;;;5021967;28;11602;-73
2021/04/14 07:57:27;;;;;;;;;49.00;41.00;;;;;;;;5020751;28;11781;-73
2021/04/14 07:59:54;;;;;;;;;40.25;37.50;;;;;;;;5021664;28;11706;-75
2021/04/14 08:02:32;;;;;;;;;57.75;45.00;;;;;;;;5015025;28;11581;-75
2021/04/14 08:05:09;;;;;;;;;45.75;43.00;;;;;;;;5019485;28;11618;-72
2021/04/14 08:07:40;;;;;;;;;43.75;40.25;;;;;;;;5014288;28;11675;-74
2021/04/14 08:10:12;;;;;;;;;48.00;40.25;;;;;;;;5013423;28;11610;-74
2021/04/14 08:12:40;;;;;;;;;47.25;40.75;;;;;;;;5019071;28;12583;-73
2021/04/14 08:15:14;;;;;;;;;39.50;34.75;;;;;;;;5013174;28;11651;-74
2021/04/14 08:17:43;;;;;;;;;44.50;39.75;;;;;;;;5014797;28;11628;-71
2021/04/14 08:20:23;;;;;;;;;49.50;43.00;;;;;;;;5015710;28;11641;-73
2021/04/14 08:22:51;;;;;;;;;40.25;38.50;;;;;;;;5015715;28;11647;-74
2021/04/14 08:25:30;;;;;;;;;44.50;38.00;;;;;;;;5017994;28;11623;-70
2021/04/14 08:27:58;;;;;;;;;40.25;39.00;;;;;;;;5016826;28;11636;-74
2021/04/14 08:30:26;;;;;;;;;48.00;42.50;;;;;;;;5017079;28;11567;-75
2021/04/14 08:33:16;;;;;;;;;45.00;41.25;;;;;;;;5017134;28;12424;-74
2021/04/14 08:35:46;;;;;;;;;46.50;39.00;;;;;;;;5016748;28;11777;-71
2021/04/14 08:38:15;;;;;;;;;41.50;32.75;;;;;;;;5018141;28;11616;-74
2021/04/14 08:40:47;;;;;;;;;37.75;33.50;;;;;;;;5016456;28;11632;-77
2021/04/14 08:43:23;;;;;;;;;43.25;41.25;;;;;;;;5017900;28;12388;-77
2021/04/14 08:45:50;;;;;;;;;35.25;32.25;;;;;;;;5015093;28;11614;-74
2021/04/14 08:48:32;;;;;;;;;38.50;31.25;;;;;;;;5015784;28;12466;-73
2021/04/14 08:51:03;;;;;;;;;34.00;34.00;;;;;;;;5016387;28;12239;-77
2021/04/14 08:53:34;;;;;;;;;32.75;30.00;;;;;;;;5014443;28;11783;-74
2021/04/14 08:56:00;;;;;;;;;28.75;26.25;;;;;;;;5018909;28;11713;-74
2021/04/14 08:58:27;;;;;;;;;29.50;27.75;;;;;;;;5016344;28;11624;-74
2021/04/14 09:00:55;;;;;;;;;24.75;24.75;;;;;;;;5015524;28;11571;-76
2021/04/14 09:03:29;;;;;;;;;19.75;19.75;;;;;;;;5013040;28;11569;-74
2021/04/14 09:05:56;;;;;;;;;27.50;27.50;;;;;;;;5014052;28;12341;-77
2021/04/14 09:08:26;;;;;;;;;29.75;26.50;;;;;;;;5018127;28;11553;-74
2021/04/14 09:10:57;;;;;;;;;32.25;29.00;;;;;;;;5016985;28;11593;-71
2021/04/14 09:13:33;;;;;;;;;35.75;30.00;;;;;;;;5017887;28;11553;-76
2021/04/14 09:16:01;;;;;;;;;22.25;21.50;;;;;;;;5015260;28;12461;-78
2021/04/14 09:18:32;;;;;;;;;21.00;20.75;;;;;;;;5016216;28;11573;-74
2021/04/14 09:21:14;;;;;;;;;18.25;16.50;;;;;;;;5015291;28;11533;-76
2021/04/14 09:23:54;;;;;;;;;13.75;13.75;;;;;;;;5016082;28;12242;-71
2021/04/14 09:26:28;;;;;;;;;19.00;17.25;;;;;;;;5017116;28;11132;-74
2021/04/14 09:28:56;;;;;;;;;17.00;17.00;;;;;;;;5015079;28;11021;-80
2021/04/14 09:31:40;;;;;;;;;21.75;18.50;;;;;;;;5015418;28;10981;-77
2021/04/14 09:34:12;;;;;;;;;25.00;21.00;;;;;;;;5014909;28;11087;-76
2021/04/14 09:36:45;;;;;;;;;17.50;17.50;;;;;;;;5017350;28;10944;-74
2021/04/14 09:39:28;;;;;;;;;21.25;18.25;;;;;;;;5016455;28;11656;-80
2021/04/14 09:41:55;;;;;;;;;17.50;17.50;;;;;;;;5012684;28;10851;-77
2021/04/14 09:44:40;;;;;;;;;16.25;16.25;;;;;;;;5014915;28;11404;-79
2021/04/14 09:47:16;;;;;;;;;15.00;15.00;;;;;;;;5013837;28;10679;-76
2021/04/14 09:49:46;;;;;;;;;14.75;13.25;;;;;;;;5012642;28;11408;-76
2021/04/14 09:52:23;;;;;;;;;15.50;15.50;;;;;;;;5017081;28;10489;-71
2021/04/14 09:54:53;;;;;;;;;15.75;15.00;;;;;;;;5015174;28;10575;-77
2021/04/14 09:57:24;;;;;;;;;18.75;16.25;;;;;;;;5016886;28;10537;-77
2021/04/14 09:59:51;;;;;;;;;16.00;16.00;;;;;;;;5014408;28;10681;-79
2021/04/14 10:02:21;;;;;;;;;21.00;21.00;;;;;;;;5015272;28;10615;-73
2021/04/14 10:04:50;;;;;;;;;20.25;20.25;;;;;;;;5010988;28;10540;-77
2021/04/14 10:07:19;;;;;;;;;20.00;20.00;;;;;;;;5015983;28;10522;-77
2021/04/14 10:09:46;;;;;;;;;22.50;22.50;;;;;;;;5013397;28;10342;-78
2021/04/14 10:12:17;;;;;;;;;21.00;16.75;;;;;;;;5013205;28;10542;-75
2021/04/14 10:14:47;;;;;;;;;27.50;24.25;;;;;;;;5015759;28;10358;-76
2021/04/14 10:17:17;;;;;;;;;19.25;19.25;;;;;;;;5014651;28;10359;-76
2021/04/14 10:19:44;;;;;;;;;20.25;20.00;;;;;;;;5014396;28;10218;-77
2021/04/14 10:22:20;;;;;;;;;22.00;19.75;;;;;;;;4998924;28;10203;-74
2021/04/14 10:24:47;;;;;;;;;25.50;25.00;;;;;;;;5016611;28;10055;-76
2021/04/14 10:27:18;;;;;;;;;18.00;16.75;;;;;;;;5017074;28;10228;-73
2021/04/14 10:29:46;;;;;;;;;19.50;19.50;;;;;;;;5009636;28;10155;-74
2021/04/14 10:32:18;;;;;;;;;23.00;21.00;;;;;;;;5012491;28;10074;-75
2021/04/14 10:34:46;;;;;;;;;24.00;21.00;;;;;;;;5019460;28;10286;-74
2021/04/14 10:37:17;;;;;;;;;19.25;18.50;;;;;;;;5021092;28;10853;-73
2021/04/14 10:39:43;;;;;;;;;23.25;23.25;;;;;;;;5018199;28;10321;-76
2021/04/14 10:42:16;;;;;;;;;19.00;18.00;;;;;;;;5013469;28;10127;-76
2021/04/14 10:44:43;;;;;;;;;24.00;23.25;;;;;;;;5021528;28;10084;-80
2021/04/14 10:47:14;;;;;;;;;20.50;17.25;;;;;;;;5018698;28;10378;-78
2021/04/14 10:49:43;;;;;;;;;21.75;19.50;;;;;;;;5020039;28;10149;-75
2021/04/14 10:52:20;;;;;;;;;22.75;22.00;;;;;;;;5016128;28;10159;-77
2021/04/14 10:54:49;;;;;;;;;30.50;25.50;;;;;;;;5008002;28;10886;-76
2021/04/14 10:57:22;;;;;;;;;27.00;21.25;;;;;;;;5019202;28;11094;-74
2021/04/14 10:59:49;;;;;;;;;24.50;21.75;;;;;;;;5027009;28;10289;-75
2021/04/14 11:02:20;;;;;;;;;20.75;20.75;;;;;;;;5021598;28;10251;-75
2021/04/14 11:04:48;;;;;;;;;24.75;24.00;;;;;;;;5016190;28;10273;-79
2021/04/14 11:07:20;;;;;;;;;21.75;21.75;;;;;;;;5013868;28;10372;-74
2021/04/14 11:09:48;;;;;;;;;20.75;20.75;;;;;;;;5018943;28;10407;-74
2021/04/14 11:12:17;;;;;;;;;23.75;23.75;;;;;;;;5019456;28;10301;-74
2021/04/14 11:14:48;;;;;;;;;24.50;22.50;;;;;;;;5014803;28;10240;-74
2021/04/14 11:17:21;;;;;;;;;19.75;19.75;;;;;;;;5019673;28;10174;-75
2021/04/14 11:19:59;;;;;;;;;20.50;20.50;;;;;;;;5020207;28;9946;-74
2021/04/14 11:22:28;;;;;;;;;21.25;21.25;;;;;;;;5023272;28;10108;-75
2021/04/14 11:24:56;;;;;;;;;27.75;24.75;;;;;;;;5018395;28;10002;-74
2021/04/14 11:27:25;;;;;;;;;25.25;23.50;;;;;;;;5020475;28;9976;-75
2021/04/14 11:29:53;;;;;;;;;18.25;17.25;;;;;;;;5016920;28;9753;-74
2021/04/14 11:32:24;;;;;;;;;23.75;22.25;;;;;;;;5013615;28;9978;-73
2021/04/14 11:35:00;;;;;;;;;24.50;24.50;;;;;;;;5019880;28;9909;-74
2021/04/14 11:37:34;;;;;;;;;27.75;25.00;;;;;;;;5017835;28;9997;-73
2021/04/14 11:40:04;;;;;;;;;24.00;24.00;;;;;;;;5017071;28;10142;-74
2021/04/14 11:42:43;;;;;;;;;25.50;25.50;;;;;;;;5019468;28;10318;-73
2021/04/14 11:45:10;;;;;;;;;30.50;28.50;;;;;;;;5015094;28;10374;-74
2021/04/14 11:47:38;;;;;;;;;29.25;24.75;;;;;;;;5015457;28;10358;-74
2021/04/14 11:50:12;;;;;;;;;21.50;21.50;;;;;;;;5010534;28;10514;-74
2021/04/14 11:52:49;;;;;;;;;24.00;24.00;;;;;;;;5014610;28;11172;-73
2021/04/14 11:55:31;;;;;;;;;32.25;31.00;;;;;;;;5011269;28;10503;-74
2021/04/14 11:58:00;;;;;;;;;33.50;32.00;;;;;;;;5016028;28;11195;-74
2021/04/14 12:00:32;;;;;;;;;14.75;11.75;;;;;;;;5016300;28;12012;-73
2021/04/14 12:03:02;;;;;;;;;40.00;35.50;;;;;;;;5018448;28;10663;-72
2021/04/14 12:05:29;;;;;;;;;38.50;34.00;;;;;;;;5022473;28;10669;-72
2021/04/14 12:07:58;;;;;;;;;24.50;24.50;;;;;;;;5019138;28;10287;-72
2021/04/14 12:10:24;;;;;;;;;33.25;29.50;;;;;;;;5017570;28;9975;-73
2021/04/14 12:12:53;;;;;;;;;29.25;26.00;;;;;;;;5015276;28;9920;-72
2021/04/14 12:15:20;;;;;;;;;29.00;29.00;;;;;;;;5014424;28;9644;-72
2021/04/14 12:17:47;;;;;;;;;26.75;24.75;;;;;;;;5016162;28;9775;-72
2021/04/14 12:20:15;;;;;;;;;29.25;27.75;;;;;;;;5013984;28;9552;-72
2021/04/14 12:22:42;;;;;;;;;24.50;24.50;;;;;;;;5016005;28;9888;-73
2021/04/14 12:25:12;;;;;;;;;26.75;26.75;;;;;;;;5017612;28;9660;-72
2021/04/14 12:27:39;;;;;;;;;28.00;26.25;;;;;;;;5017078;28;9629;-72
2021/04/14 12:30:07;;;;;;;;;28.25;28.25;;;;;;;;5016661;28;10459;-74
2021/04/14 12:32:35;;;;;;;;;25.00;22.25;;;;;;;;5013657;28;11026;-73
2021/04/14 12:35:02;;;;;;;;;21.25;20.00;;;;;;;;5019302;28;9498;-72
2021/04/14 12:37:29;;;;;;;;;13.50;13.50;;;;;;;;5018347;28;10835;-73
2021/04/14 12:39:56;;;;;;;;;25.25;25.25;;;;;;;;5017311;28;9761;-73
2021/04/14 12:42:24;;;;;;;;;24.75;24.75;;;;;;;;5017412;28;9910;-72
2021/04/14 12:44:51;;;;;;;;;27.75;24.50;;;;;;;;5014789;28;9900;-71
2021/04/14 12:47:24;;;;;;;;;29.50;27.25;;;;;;;;5016961;28;9817;-73
2021/04/14 12:49:52;;;;;;;;;30.00;29.75;;;;;;;;5010124;28;9991;-72
2021/04/14 12:52:25;;;;;;;;;24.75;24.75;;;;;;;;5016682;28;10575;-72
2021/04/14 12:54:57;;;;;;;;;24.75;24.75;;;;;;;;5013838;28;10085;-71
2021/04/14 12:57:27;;;;;;;;;24.00;22.25;;;;;;;;5016484;28;10237;-73
2021/04/14 13:00:00;;;;;;;;;27.00;24.50;;;;;;;;5017038;28;9877;-73
2021/04/14 13:02:36;;;;;;;;;27.50;25.00;;;;;;;;5013513;28;10002;-72
2021/04/14 13:05:07;;;;;;;;;19.25;19.25;;;;;;;;5018303;28;10265;-71
2021/04/14 13:07:39;;;;;;;;;25.75;25.00;;;;;;;;5017490;28;10169;-72
2021/04/14 13:10:09;;;;;;;;;26.00;25.00;;;;;;;;5017848;28;10253;-72
2021/04/14 13:12:38;;;;;;;;;27.50;25.25;;;;;;;;5017020;28;10311;-73
2021/04/14 13:15:06;;;;;;;;;29.50;26.50;;;;;;;;5015395;28;10380;-70
2021/04/14 13:17:38;;;;;;;;;20.50;18.25;;;;;;;;5022292;28;10613;-73
2021/04/14 13:20:06;;;;;;;;;29.25;28.00;;;;;;;;5008790;28;10618;-71
2021/04/14 13:22:38;;;;;;;;;28.25;26.25;;;;;;;;5018081;28;10836;-73
2021/04/14 13:25:08;;;;;;;;;27.00;26.00;;;;;;;;5017563;28;10691;-73
2021/04/14 13:27:44;;;;;;;;;19.75;19.75;;;;;;;;5015473;28;10844;-73
2021/04/14 13:30:17;;;;;;;;;28.25;25.50;;;;;;;;5009811;28;10579;-74
2021/04/14 13:32:52;;;;;;;;;28.00;22.25;;;;;;;;5018226;28;10629;-73
2021/04/14 13:35:22;;;;;;;;;24.50;23.50;;;;;;;;5017703;28;10492;-73
2021/04/14 13:38:00;;;;;;;;;29.00;25.75;;;;;;;;5016480;28;10299;-73
2021/04/14 13:40:35;;;;;;;;;28.25;28.25;;;;;;;;5018009;28;10306;-70
2021/04/14 13:43:04;;;;;;;;;37.25;31.50;;;;;;;;5019349;28;10346;-73
2021/04/14 13:45:46;;;;;;;;;24.50;22.00;;;;;;;;5017957;28;10329;-73
2021/04/14 13:48:16;;;;;;;;;24.25;23.75;;;;;;;;5017185;28;10208;-72
2021/04/14 13:50:51;;;;;;;;;24.00;23.75;;;;;;;;5017044;28;10311;-73
2021/04/14 13:53:21;;;;;;;;;27.75;24.25;;;;;;;;5016053;28;10230;-70
2021/04/14 13:55:48;;;;;;;;;27.50;26.00;;;;;;;;5010751;28;10290;-72
2021/04/14 13:58:23;;;;;;;;;27.50;27.00;;;;;;;;5020429;28;11151;-74
2021/04/14 14:00:54;;;;;;;;;32.00;32.00;;;;;;;;5016800;28;10616;-71
2021/04/14 14:03:26;;;;;;;;;32.25;29.75;;;;;;;;5018290;28;10770;-73
2021/04/14 14:05:56;;;;;;;;;24.75;24.75;;;;;;;;5020206;28;10665;-73
2021/04/14 14:08:30;;;;;;;;;23.50;23.00;;;;;;;;5020437;28;10474;-72
2021/04/14 14:11:00;;;;;;;;;25.00;25.00;;;;;;;;5021946;28;11282;-71
2021/04/14 14:13:30;;;;;;;;;26.25;23.25;;;;;;;;5015287;28;10222;-71
2021/04/14 14:16:04;;;;;;;;;22.25;21.25;;;;;;;;5018121;28;10400;-72
2021/04/14 14:18:31;;;;;;;;;26.75;20.75;;;;;;;;5022131;28;10750;-73
2021/04/14 14:20:59;;;;;;;;;17.00;17.00;;;;;;;;5018629;28;10120;-70
2021/04/14 14:23:27;;;;;;;;;22.50;20.25;;;;;;;;5025242;28;9963;-73
2021/04/14 14:25:55;;;;;;;;;17.25;15.00;;;;;;;;5022473;28;10691;-72
2021/04/14 14:28:23;;;;;;;;;25.00;22.75;;;;;;;;5021215;28;9990;-73
2021/04/14 14:30:52;;;;;;;;;16.50;16.50;;;;;;;;5019999;28;9684;-70
2021/04/14 14:33:23;;;;;;;;;17.67;15.67;;;;;;;;5020671;28;9506;-73
2021/04/14 14:35:54;;;;;;;;;16.00;16.00;;;;;;;;5021633;28;9350;-72
2021/04/14 14:38:25;;;;;;;;;17.50;15.75;;;;;;;;5013130;28;9441;-76
2021/04/14 14:40:54;;;;;;;;;21.00;17.00;;;;;;;;5021957;28;9582;-75